Lamont, FL (32336)

11:44 PM EDT on July 27, 2016 (GMT -0400)
Old Dirt | | Change Station

Elev 161 ft 30.45 °N, 84.14 °W | Updated 15 seconds ago

Partly Cloudy
Partly Cloudy
78.5 °F
Feels Like 82 °F
N
0.0
Wind Variable Wind from ESE
Gusts 0.0 mph

Today
High -- | Low -- °F
--% Chance of Precip.
Yesterday
High -- | Low -- °F
Precip. -- in
Pressure 30.06 in
Visibility 10.0 miles
Clouds Few 4000 ft
Heat Index 82 °F
Dew Point 77 °F
Humidity 95%
Rainfall 0.00 in
Snow Depth Not available.
6:51 AM 8:32 PM
Last Quarter, 36% visible
METAR KTLH 280253Z 23005KT 10SM FEW040 28/24 A3006 RMK AO2 SLP177 T02830244 53012
Pressure 30.06 in
Visibility 10.0 miles
Clouds Few 4000 ft
Heat Index 82 °F
Dew Point 77 °F
Humidity 95%
Rainfall 0.00 in
Snow Depth Not available.
6:51 AM 8:32 PM
Last Quarter, 36% visible
METAR KTLH 280253Z 23005KT 10SM FEW040 28/24 A3006 RMK AO2 SLP177 T02830244 53012

10-Day Weather Forecast

Almanac

Astronomy

Jul. 27, 2016 Rise Set
Actual Time
Civil Twilight
Nautical Twilight
Astronomical Twilight
Moon
Length of Visible Light
Length of Day
Tomorrow will be .
, % of the Moon is Illuminated

Today's Extremes

State Highs State Lows

Community

WunderPhotos

Upload Photos

1,928,037 photos uploaded!

WunderBlog® & News

Nearby

Air Quality

  Air Quality AQ Index Pollutant
Not available.

Snow Depth

Station Depth Elevation

Earthquake Activity

City Distance Mag. Time & Date
Minimum magnitude displayed is 2.5.

Coastal Water Temperatures

Place Temperature

Stations

Nearby Weather Stations

Station Location Temp. Windchill Dew Point Humidity Wind Precip. Elev Updated Type
                   

Watches & Warnings

There are currently no watches in effect.